sensor_id;sensor_type;location;lat;lon;timestamp;temperature;humidity
15241;DHT22;7723;52.170;9.978;2023-12-20T00:00:37;7.50;99.90
15241;DHT22;7723;52.170;9.978;2023-12-20T00:03:04;6.70;99.90
15241;DHT22;7723;52.170;9.978;2023-12-20T00:05:32;7.50;99.90
15241;DHT22;7723;52.170;9.978;2023-12-20T00:08:01;7.60;99.90
15241;DHT22;7723;52.170;9.978;2023-12-20T00:10:30;7.50;99.90
15241;DHT22;7723;52.170;9.978;2023-12-20T00:12:58;7.50;99.90
15241;DHT22;7723;52.170;9.978;2023-12-20T00:15:25;7.50;99.90
15241;DHT22;7723;52.170;9.978;2023-12-20T00:17:53;7.60;99.90
15241;DHT22;7723;52.170;9.978;2023-12-20T00:20:19;7.60;99.90
15241;DHT22;7723;52.170;9.978;2023-12-20T00:22:46;7.50;99.90
15241;DHT22;7723;52.170;9.978;2023-12-20T00:25:15;7.60;99.90
15241;DHT22;7723;52.170;9.978;2023-12-20T00:27:42;7.60;99.90
15241;DHT22;7723;52.170;9.978;2023-12-20T00:30:12;7.50;99.90
15241;DHT22;7723;52.170;9.978;2023-12-20T00:32:39;7.60;99.90
15241;DHT22;7723;52.170;9.978;2023-12-20T00:35:12;7.60;99.90
15241;DHT22;7723;52.170;9.978;2023-12-20T00:37:39;7.50;99.90
15241;DHT22;7723;52.170;9.978;2023-12-20T00:40:07;7.50;99.90
15241;DHT22;7723;52.170;9.978;2023-12-20T00:42:36;7.50;99.90
15241;DHT22;7723;52.170;9.978;2023-12-20T00:45:04;7.50;99.90
15241;DHT22;7723;52.170;9.978;2023-12-20T00:47:31;7.50;99.90
15241;DHT22;7723;52.170;9.978;2023-12-20T00:49:59;7.60;99.90
15241;DHT22;7723;52.170;9.978;2023-12-20T00:52:26;7.40;99.90
15241;DHT22;7723;52.170;9.978;2023-12-20T00:54:54;7.40;99.90
15241;DHT22;7723;52.170;9.978;2023-12-20T00:57:21;7.30;99.90
15241;DHT22;7723;52.170;9.978;2023-12-20T00:59:50;7.20;99.90
15241;DHT22;7723;52.170;9.978;2023-12-20T01:02:17;7.20;99.90
15241;DHT22;7723;52.170;9.978;2023-12-20T01:04:45;7.10;99.90
15241;DHT22;7723;52.170;9.978;2023-12-20T01:07:12;7.10;99.90
15241;DHT22;7723;52.170;9.978;2023-12-20T01:09:39;7.00;99.90
15241;DHT22;7723;52.170;9.978;2023-12-20T01:12:06;6.90;99.90
15241;DHT22;7723;52.170;9.978;2023-12-20T01:14:33;6.40;99.90
15241;DHT22;7723;52.170;9.978;2023-12-20T01:17:02;6.90;99.90
15241;DHT22;7723;52.170;9.978;2023-12-20T01:19:29;6.90;99.90
15241;DHT22;7723;52.170;9.978;2023-12-20T01:21:56;6.80;99.90
15241;DHT22;7723;52.170;9.978;2023-12-20T01:24:23;6.70;99.90
15241;DHT22;7723;52.170;9.978;2023-12-20T01:26:51;6.70;99.90
15241;DHT22;7723;52.170;9.978;2023-12-20T01:29:18;6.60;99.90
15241;DHT22;7723;52.170;9.978;2023-12-20T01:31:45;6.00;99.90
15241;DHT22;7723;52.170;9.978;2023-12-20T01:34:14;6.60;99.90
15241;DHT22;7723;52.170;9.978;2023-12-20T01:36:42;6.50;99.90
15241;DHT22;7723;52.170;9.978;2023-12-20T01:39:09;6.50;99.90
15241;DHT22;7723;52.170;9.978;2023-12-20T01:41:37;6.40;99.90
15241;DHT22;7723;52.170;9.978;2023-12-20T01:44:04;6.30;99.90
15241;DHT22;7723;52.170;9.978;2023-12-20T01:46:31;6.20;99.90
15241;DHT22;7723;52.170;9.978;2023-12-20T01:48:59;6.20;99.90
15241;DHT22;7723;52.170;9.978;2023-12-20T01:51:28;6.10;99.90
15241;DHT22;7723;52.170;9.978;2023-12-20T01:53:56;6.00;99.90
15241;DHT22;7723;52.170;9.978;2023-12-20T01:56:24;6.00;99.90
15241;DHT22;7723;52.170;9.978;2023-12-20T01:58:52;5.90;99.90
15241;DHT22;7723;52.170;9.978;2023-12-20T02:01:20;5.90;99.90
15241;DHT22;7723;52.170;9.978;2023-12-20T02:03:47;5.90;99.90
15241;DHT22;7723;52.170;9.978;2023-12-20T02:06:16;5.90;99.90
15241;DHT22;7723;52.170;9.978;2023-12-20T02:08:45;5.90;99.90
15241;DHT22;7723;52.170;9.978;2023-12-20T02:11:12;5.90;99.90
15241;DHT22;7723;52.170;9.978;2023-12-20T02:13:39;5.90;99.90
15241;DHT22;7723;52.170;9.978;2023-12-20T02:16:07;5.90;99.90
15241;DHT22;7723;52.170;9.978;2023-12-20T02:18:34;6.00;99.90
15241;DHT22;7723;52.170;9.978;2023-12-20T02:21:02;6.00;99.90
15241;DHT22;7723;52.170;9.978;2023-12-20T02:23:32;6.10;99.90
15241;DHT22;7723;52.170;9.978;2023-12-20T02:26:04;6.00;99.90
15241;DHT22;7723;52.170;9.978;2023-12-20T02:28:33;6.10;99.90
15241;DHT22;7723;52.170;9.978;2023-12-20T02:31:00;6.10;99.90
15241;DHT22;7723;52.170;9.978;2023-12-20T02:33:27;6.10;99.90
15241;DHT22;7723;52.170;9.978;2023-12-20T02:35:58;6.10;99.90
15241;DHT22;7723;52.170;9.978;2023-12-20T02:38:26;6.10;99.90
15241;DHT22;7723;52.170;9.978;2023-12-20T02:40:55;6.00;99.90
15241;DHT22;7723;52.170;9.978;2023-12-20T02:43:22;6.00;99.90
15241;DHT22;7723;52.170;9.978;2023-12-20T02:45:49;6.00;99.90
15241;DHT22;7723;52.170;9.978;2023-12-20T02:48:16;5.80;99.90
15241;DHT22;7723;52.170;9.978;2023-12-20T02:50:44;5.80;99.90
15241;DHT22;7723;52.170;9.978;2023-12-20T02:53:12;5.70;99.90
15241;DHT22;7723;52.170;9.978;2023-12-20T02:55:39;5.70;99.90
15241;DHT22;7723;52.170;9.978;2023-12-20T02:58:08;5.60;99.90
15241;DHT22;7723;52.170;9.978;2023-12-20T03:00:35;5.60;99.90
15241;DHT22;7723;52.170;9.978;2023-12-20T03:03:03;5.50;99.90
15241;DHT22;7723;52.170;9.978;2023-12-20T03:05:30;5.40;99.90
15241;DHT22;7723;52.170;9.978;2023-12-20T03:07:57;5.40;99.90
15241;DHT22;7723;52.170;9.978;2023-12-20T03:10:25;5.50;99.90
15241;DHT22;7723;52.170;9.978;2023-12-20T03:12:52;5.60;99.90
15241;DHT22;7723;52.170;9.978;2023-12-20T03:15:21;5.60;99.90
15241;DHT22;7723;52.170;9.978;2023-12-20T03:17:54;5.60;99.90
15241;DHT22;7723;52.170;9.978;2023-12-20T03:20:21;6.10;99.90
15241;DHT22;7723;52.170;9.978;2023-12-20T03:22:48;5.60;99.90
15241;DHT22;7723;52.170;9.978;2023-12-20T03:25:16;5.60;99.90
15241;DHT22;7723;52.170;9.978;2023-12-20T03:27:43;5.50;99.90
15241;DHT22;7723;52.170;9.978;2023-12-20T03:30:11;5.60;99.90
15241;DHT22;7723;52.170;9.978;2023-12-20T03:32:40;5.40;99.90
15241;DHT22;7723;52.170;9.978;2023-12-20T03:35:07;5.40;99.90
15241;DHT22;7723;52.170;9.978;2023-12-20T03:37:34;5.20;99.90
15241;DHT22;7723;52.170;9.978;2023-12-20T03:40:01;5.10;99.90
15241;DHT22;7723;52.170;9.978;2023-12-20T03:42:29;5.00;99.90
15241;DHT22;7723;52.170;9.978;2023-12-20T03:44:56;5.10;99.90
15241;DHT22;7723;52.170;9.978;2023-12-20T03:47:23;5.60;99.90
15241;DHT22;7723;52.170;9.978;2023-12-20T03:49:52;5.10;99.90
15241;DHT22;7723;52.170;9.978;2023-12-20T03:52:19;5.10;99.90
15241;DHT22;7723;52.170;9.978;2023-12-20T03:54:47;5.00;99.90
15241;DHT22;7723;52.170;9.978;2023-12-20T03:57:14;5.00;99.90
15241;DHT22;7723;52.170;9.978;2023-12-20T03:59:41;5.10;99.90
15241;DHT22;7723;52.170;9.978;2023-12-20T04:02:08;5.00;99.90
15241;DHT22;7723;52.170;9.978;2023-12-20T04:04:36;5.10;99.90
15241;DHT22;7723;52.170;9.978;2023-12-20T04:07:05;5.10;99.90
15241;DHT22;7723;52.170;9.978;2023-12-20T04:09:32;5.10;99.90
15241;DHT22;7723;52.170;9.978;2023-12-20T04:12:00;5.10;99.90
15241;DHT22;7723;52.170;9.978;2023-12-20T04:14:27;5.00;99.90
15241;DHT22;7723;52.170;9.978;2023-12-20T04:16:54;5.00;99.90
15241;DHT22;7723;52.170;9.978;2023-12-20T04:19:21;5.00;99.90
15241;DHT22;7723;52.170;9.978;2023-12-20T04:21:49;5.00;99.90
15241;DHT22;7723;52.170;9.978;2023-12-20T04:24:17;5.10;99.90
15241;DHT22;7723;52.170;9.978;2023-12-20T04:26:45;5.20;99.90
15241;DHT22;7723;52.170;9.978;2023-12-20T04:29:12;5.30;99.90
15241;DHT22;7723;52.170;9.978;2023-12-20T04:31:40;5.30;99.90
15241;DHT22;7723;52.170;9.978;2023-12-20T04:34:07;5.30;99.90
15241;DHT22;7723;52.170;9.978;2023-12-20T04:36:34;5.30;99.90
15241;DHT22;7723;52.170;9.978;2023-12-20T04:39:02;5.40;99.90
15241;DHT22;7723;52.170;9.978;2023-12-20T04:41:31;5.50;99.90
15241;DHT22;7723;52.170;9.978;2023-12-20T04:43:58;5.50;99.90
15241;DHT22;7723;52.170;9.978;2023-12-20T04:46:26;5.50;99.90
15241;DHT22;7723;52.170;9.978;2023-12-20T04:48:53;5.60;99.90
15241;DHT22;7723;52.170;9.978;2023-12-20T04:51:21;5.60;99.90
15241;DHT22;7723;52.170;9.978;2023-12-20T04:53:48;5.70;99.90
15241;DHT22;7723;52.170;9.978;2023-12-20T04:56:15;5.70;99.90
15241;DHT22;7723;52.170;9.978;2023-12-20T04:58:44;5.70;99.90
15241;DHT22;7723;52.170;9.978;2023-12-20T05:01:12;5.80;99.90
15241;DHT22;7723;52.170;9.978;2023-12-20T05:03:39;5.90;99.90
15241;DHT22;7723;52.170;9.978;2023-12-20T05:06:07;5.50;99.90
15241;DHT22;7723;52.170;9.978;2023-12-20T05:08:34;5.80;99.90
15241;DHT22;7723;52.170;9.978;2023-12-20T05:11:02;5.70;99.90
15241;DHT22;7723;52.170;9.978;2023-12-20T05:13:29;5.80;99.90
15241;DHT22;7723;52.170;9.978;2023-12-20T05:15:59;5.80;99.90
15241;DHT22;7723;52.170;9.978;2023-12-20T05:18:27;5.80;99.90
15241;DHT22;7723;52.170;9.978;2023-12-20T05:20:54;5.80;99.90
15241;DHT22;7723;52.170;9.978;2023-12-20T05:23:21;5.80;99.90
15241;DHT22;7723;52.170;9.978;2023-12-20T05:25:49;5.80;99.90
15241;DHT22;7723;52.170;9.978;2023-12-20T05:28:16;5.80;99.90
15241;DHT22;7723;52.170;9.978;2023-12-20T05:30:43;5.00;99.90
15241;DHT22;7723;52.170;9.978;2023-12-20T05:33:12;5.80;99.90
15241;DHT22;7723;52.170;9.978;2023-12-20T05:35:39;5.90;99.90
15241;DHT22;7723;52.170;9.978;2023-12-20T05:38:07;5.80;99.90
15241;DHT22;7723;52.170;9.978;2023-12-20T05:40:34;5.10;99.90
15241;DHT22;7723;52.170;9.978;2023-12-20T05:43:01;5.90;99.90
15241;DHT22;7723;52.170;9.978;2023-12-20T05:45:28;6.10;99.90
15241;DHT22;7723;52.170;9.978;2023-12-20T05:47:56;6.00;99.90
15241;DHT22;7723;52.170;9.978;2023-12-20T05:50:26;6.10;99.90
15241;DHT22;7723;52.170;9.978;2023-12-20T05:52:53;6.00;99.90
15241;DHT22;7723;52.170;9.978;2023-12-20T05:55:20;6.10;99.90
15241;DHT22;7723;52.170;9.978;2023-12-20T05:57:48;6.00;99.90
15241;DHT22;7723;52.170;9.978;2023-12-20T06:00:16;6.00;99.90
15241;DHT22;7723;52.170;9.978;2023-12-20T06:02:43;6.00;99.90
15241;DHT22;7723;52.170;9.978;2023-12-20T06:05:11;7.40;99.90
15241;DHT22;7723;52.170;9.978;2023-12-20T06:07:40;6.00;99.90
15241;DHT22;7723;52.170;9.978;2023-12-20T06:10:08;6.00;99.90
15241;DHT22;7723;52.170;9.978;2023-12-20T06:12:35;6.00;99.90
15241;DHT22;7723;52.170;9.978;2023-12-20T06:15:03;6.10;99.90
15241;DHT22;7723;52.170;9.978;2023-12-20T06:17:31;6.00;99.90
15241;DHT22;7723;52.170;9.978;2023-12-20T06:19:59;5.90;99.90
15241;DHT22;7723;52.170;9.978;2023-12-20T06:22:26;5.90;99.90
15241;DHT22;7723;52.170;9.978;2023-12-20T06:24:55;5.90;99.90
15241;DHT22;7723;52.170;9.978;2023-12-20T06:27:22;6.00;99.90
15241;DHT22;7723;52.170;9.978;2023-12-20T06:29:49;5.80;99.90
15241;DHT22;7723;52.170;9.978;2023-12-20T06:32:16;5.80;99.90
15241;DHT22;7723;52.170;9.978;2023-12-20T06:34:44;5.80;99.90
15241;DHT22;7723;52.170;9.978;2023-12-20T06:37:11;5.90;99.90
15241;DHT22;7723;52.170;9.978;2023-12-20T06:39:39;5.80;99.90
15241;DHT22;7723;52.170;9.978;2023-12-20T06:42:07;5.80;99.90
15241;DHT22;7723;52.170;9.978;2023-12-20T06:44:35;5.90;99.90
15241;DHT22;7723;52.170;9.978;2023-12-20T06:47:02;5.50;99.90
15241;DHT22;7723;52.170;9.978;2023-12-20T06:49:30;5.90;99.90
15241;DHT22;7723;52.170;9.978;2023-12-20T06:51:57;6.00;99.90
15241;DHT22;7723;52.170;9.978;2023-12-20T06:54:24;5.90;99.90
15241;DHT22;7723;52.170;9.978;2023-12-20T06:56:52;5.80;99.90
15241;DHT22;7723;52.170;9.978;2023-12-20T06:59:20;5.70;99.90
15241;DHT22;7723;52.170;9.978;2023-12-20T07:01:48;5.60;99.90
15241;DHT22;7723;52.170;9.978;2023-12-20T07:04:16;5.60;99.90
15241;DHT22;7723;52.170;9.978;2023-12-20T07:06:45;5.60;99.90
15241;DHT22;7723;52.170;9.978;2023-12-20T07:09:13;5.70;99.90
15241;DHT22;7723;52.170;9.978;2023-12-20T07:11:41;5.70;99.90
15241;DHT22;7723;52.170;9.978;2023-12-20T07:14:08;5.80;99.90
15241;DHT22;7723;52.170;9.978;2023-12-20T07:16:37;4.80;99.90
15241;DHT22;7723;52.170;9.978;2023-12-20T07:19:04;5.70;99.90
15241;DHT22;7723;52.170;9.978;2023-12-20T07:21:31;5.70;99.90
15241;DHT22;7723;52.170;9.978;2023-12-20T07:23:59;5.70;99.90
15241;DHT22;7723;52.170;9.978;2023-12-20T07:26:26;5.70;99.90
15241;DHT22;7723;52.170;9.978;2023-12-20T07:28:56;5.60;99.90
15241;DHT22;7723;52.170;9.978;2023-12-20T07:31:24;5.70;99.90
15241;DHT22;7723;52.170;9.978;2023-12-20T07:33:53;5.70;99.90
15241;DHT22;7723;52.170;9.978;2023-12-20T07:36:20;5.80;99.90
15241;DHT22;7723;52.170;9.978;2023-12-20T07:38:48;5.90;99.90
15241;DHT22;7723;52.170;9.978;2023-12-20T07:41:15;5.80;99.90
15241;DHT22;7723;52.170;9.978;2023-12-20T07:43:43;5.70;99.90
15241;DHT22;7723;52.170;9.978;2023-12-20T07:46:11;5.70;99.90
15241;DHT22;7723;52.170;9.978;2023-12-20T07:48:38;5.70;99.90
15241;DHT22;7723;52.170;9.978;2023-12-20T07:51:08;5.80;99.90
15241;DHT22;7723;52.170;9.978;2023-12-20T07:53:35;5.80;99.90
15241;DHT22;7723;52.170;9.978;2023-12-20T07:56:13;5.90;99.90
15241;DHT22;7723;52.170;9.978;2023-12-20T07:58:41;5.90;99.90
15241;DHT22;7723;52.170;9.978;2023-12-20T08:01:08;6.10;99.90
15241;DHT22;7723;52.170;9.978;2023-12-20T08:03:36;6.10;99.90
15241;DHT22;7723;52.170;9.978;2023-12-20T08:06:04;6.10;99.90
15241;DHT22;7723;52.170;9.978;2023-12-20T08:08:45;6.10;99.90
15241;DHT22;7723;52.170;9.978;2023-12-20T08:11:16;6.10;99.90
15241;DHT22;7723;52.170;9.978;2023-12-20T08:13:44;6.20;99.90
15241;DHT22;7723;52.170;9.978;2023-12-20T08:16:11;6.20;99.90
15241;DHT22;7723;52.170;9.978;2023-12-20T08:18:41;6.30;99.90
15241;DHT22;7723;52.170;9.978;2023-12-20T08:21:16;6.20;99.90
15241;DHT22;7723;52.170;9.978;2023-12-20T08:23:49;5.20;99.90
15241;DHT22;7723;52.170;9.978;2023-12-20T08:26:19;6.30;99.90
15241;DHT22;7723;52.170;9.978;2023-12-20T08:28:48;7.00;99.90
15241;DHT22;7723;52.170;9.978;2023-12-20T08:31:16;6.30;99.90
15241;DHT22;7723;52.170;9.978;2023-12-20T08:33:43;6.30;99.90
15241;DHT22;7723;52.170;9.978;2023-12-20T08:36:16;6.30;99.90
15241;DHT22;7723;52.170;9.978;2023-12-20T08:38:53;6.50;99.90
15241;DHT22;7723;52.170;9.978;2023-12-20T08:41:21;6.50;99.90
15241;DHT22;7723;52.170;9.978;2023-12-20T08:43:48;6.30;99.90
15241;DHT22;7723;52.170;9.978;2023-12-20T08:46:16;6.20;99.90
15241;DHT22;7723;52.170;9.978;2023-12-20T08:48:57;6.20;99.90
15241;DHT22;7723;52.170;9.978;2023-12-20T08:51:25;6.30;99.90
15241;DHT22;7723;52.170;9.978;2023-12-20T08:53:53;6.30;99.90
15241;DHT22;7723;52.170;9.978;2023-12-20T08:56:21;6.30;99.90
15241;DHT22;7723;52.170;9.978;2023-12-20T08:58:48;6.30;99.90
15241;DHT22;7723;52.170;9.978;2023-12-20T09:01:16;6.40;99.90
15241;DHT22;7723;52.170;9.978;2023-12-20T09:03:43;6.50;99.90
15241;DHT22;7723;52.170;9.978;2023-12-20T09:06:10;6.50;99.90
15241;DHT22;7723;52.170;9.978;2023-12-20T09:08:40;6.50;99.90
15241;DHT22;7723;52.170;9.978;2023-12-20T09:11:37;6.70;99.90
15241;DHT22;7723;52.170;9.978;2023-12-20T09:14:05;6.50;99.90
15241;DHT22;7723;52.170;9.978;2023-12-20T09:16:35;6.50;99.90
15241;DHT22;7723;52.170;9.978;2023-12-20T09:19:02;6.50;99.90
15241;DHT22;7723;52.170;9.978;2023-12-20T09:21:29;6.50;99.90
15241;DHT22;7723;52.170;9.978;2023-12-20T09:23:57;6.60;99.90
15241;DHT22;7723;52.170;9.978;2023-12-20T09:26:24;6.50;99.90
15241;DHT22;7723;52.170;9.978;2023-12-20T09:29:22;6.40;99.90
15241;DHT22;7723;52.170;9.978;2023-12-20T09:31:53;6.50;99.90
15241;DHT22;7723;52.170;9.978;2023-12-20T09:34:21;6.50;99.90
15241;DHT22;7723;52.170;9.978;2023-12-20T09:36:48;6.50;99.90
15241;DHT22;7723;52.170;9.978;2023-12-20T09:39:16;6.60;99.90
15241;DHT22;7723;52.170;9.978;2023-12-20T09:41:45;6.70;99.90
15241;DHT22;7723;52.170;9.978;2023-12-20T09:44:16;6.70;99.90
15241;DHT22;7723;52.170;9.978;2023-12-20T09:46:45;6.60;99.90
15241;DHT22;7723;52.170;9.978;2023-12-20T09:49:20;6.60;99.90
15241;DHT22;7723;52.170;9.978;2023-12-20T09:51:48;6.70;99.90
15241;DHT22;7723;52.170;9.978;2023-12-20T09:54:17;6.60;99.90
15241;DHT22;7723;52.170;9.978;2023-12-20T09:56:45;6.70;99.90
15241;DHT22;7723;52.170;9.978;2023-12-20T09:59:15;6.00;99.90
15241;DHT22;7723;52.170;9.978;2023-12-20T10:01:43;6.80;99.90
15241;DHT22;7723;52.170;9.978;2023-12-20T10:04:11;6.80;99.90
15241;DHT22;7723;52.170;9.978;2023-12-20T10:06:39;6.90;99.90
15241;DHT22;7723;52.170;9.978;2023-12-20T10:09:07;6.90;99.90
15241;DHT22;7723;52.170;9.978;2023-12-20T10:11:35;6.90;99.90
15241;DHT22;7723;52.170;9.978;2023-12-20T10:14:04;7.00;99.90
15241;DHT22;7723;52.170;9.978;2023-12-20T10:16:34;6.90;99.90
15241;DHT22;7723;52.170;9.978;2023-12-20T10:19:01;6.80;99.90
15241;DHT22;7723;52.170;9.978;2023-12-20T10:21:28;6.90;99.90
15241;DHT22;7723;52.170;9.978;2023-12-20T10:23:57;7.00;99.90
15241;DHT22;7723;52.170;9.978;2023-12-20T10:26:25;7.00;99.90
15241;DHT22;7723;52.170;9.978;2023-12-20T10:28:54;7.00;99.90
15241;DHT22;7723;52.170;9.978;2023-12-20T10:31:29;7.00;99.90
15241;DHT22;7723;52.170;9.978;2023-12-20T10:33:59;7.00;99.90
15241;DHT22;7723;52.170;9.978;2023-12-20T10:36:27;7.00;99.90
15241;DHT22;7723;52.170;9.978;2023-12-20T10:38:55;7.00;99.90
15241;DHT22;7723;52.170;9.978;2023-12-20T10:41:26;7.00;99.90
15241;DHT22;7723;52.170;9.978;2023-12-20T10:43:57;7.00;99.90
15241;DHT22;7723;52.170;9.978;2023-12-20T10:46:28;7.20;99.90
15241;DHT22;7723;52.170;9.978;2023-12-20T10:48:58;7.30;99.90
15241;DHT22;7723;52.170;9.978;2023-12-20T10:51:26;7.50;99.90
15241;DHT22;7723;52.170;9.978;2023-12-20T10:53:56;7.50;99.90
15241;DHT22;7723;52.170;9.978;2023-12-20T10:56:31;7.60;99.90
15241;DHT22;7723;52.170;9.978;2023-12-20T10:59:01;7.60;99.90
15241;DHT22;7723;52.170;9.978;2023-12-20T11:01:31;7.50;99.90
15241;DHT22;7723;52.170;9.978;2023-12-20T11:04:00;7.40;99.90
15241;DHT22;7723;52.170;9.978;2023-12-20T11:06:35;7.40;99.90
15241;DHT22;7723;52.170;9.978;2023-12-20T11:09:12;7.40;99.90
15241;DHT22;7723;52.170;9.978;2023-12-20T11:11:50;7.30;99.90
15241;DHT22;7723;52.170;9.978;2023-12-20T11:14:23;7.50;99.90
15241;DHT22;7723;52.170;9.978;2023-12-20T11:17:05;7.40;99.90
15241;DHT22;7723;52.170;9.978;2023-12-20T11:19:36;7.30;99.90
15241;DHT22;7723;52.170;9.978;2023-12-20T11:22:04;7.30;99.90
15241;DHT22;7723;52.170;9.978;2023-12-20T11:24:32;6.90;99.90
15241;DHT22;7723;52.170;9.978;2023-12-20T11:27:00;7.10;99.90
15241;DHT22;7723;52.170;9.978;2023-12-20T11:29:36;7.10;99.90
15241;DHT22;7723;52.170;9.978;2023-12-20T11:32:28;7.10;99.90
15241;DHT22;7723;52.170;9.978;2023-12-20T11:34:59;7.00;99.90
15241;DHT22;7723;52.170;9.978;2023-12-20T11:37:29;6.90;99.90
15241;DHT22;7723;52.170;9.978;2023-12-20T11:40:01;6.80;99.90
15241;DHT22;7723;52.170;9.978;2023-12-20T11:42:33;6.90;99.90
15241;DHT22;7723;52.170;9.978;2023-12-20T11:45:02;6.80;99.90
15241;DHT22;7723;52.170;9.978;2023-12-20T11:47:30;6.70;99.90
15241;DHT22;7723;52.170;9.978;2023-12-20T11:49:59;6.80;99.90
15241;DHT22;7723;52.170;9.978;2023-12-20T11:52:29;6.80;99.90
15241;DHT22;7723;52.170;9.978;2023-12-20T11:54:57;6.70;99.90
15241;DHT22;7723;52.170;9.978;2023-12-20T11:57:25;6.70;99.90
15241;DHT22;7723;52.170;9.978;2023-12-20T11:59:52;7.00;99.90
15241;DHT22;7723;52.170;9.978;2023-12-20T12:02:25;6.90;99.90
15241;DHT22;7723;52.170;9.978;2023-12-20T12:08:20;8.20;99.90
15241;DHT22;7723;52.170;9.978;2023-12-20T12:10:50;6.60;99.90
15241;DHT22;7723;52.170;9.978;2023-12-20T12:13:18;7.80;99.90
15241;DHT22;7723;52.170;9.978;2023-12-20T12:15:45;6.60;99.90
15241;DHT22;7723;52.170;9.978;2023-12-20T12:18:16;6.60;99.90
15241;DHT22;7723;52.170;9.978;2023-12-20T12:20:43;6.50;99.90
15241;DHT22;7723;52.170;9.978;2023-12-20T12:23:12;5.80;99.90
15241;DHT22;7723;52.170;9.978;2023-12-20T12:25:40;5.40;99.90
15241;DHT22;7723;52.170;9.978;2023-12-20T12:28:08;5.30;99.90
15241;DHT22;7723;52.170;9.978;2023-12-20T12:30:36;5.10;99.90
15241;DHT22;7723;52.170;9.978;2023-12-20T12:33:04;4.90;99.90
15241;DHT22;7723;52.170;9.978;2023-12-20T12:35:31;4.90;99.90
15241;DHT22;7723;52.170;9.978;2023-12-20T12:37:59;4.80;99.90
15241;DHT22;7723;52.170;9.978;2023-12-20T12:40:30;4.90;99.90
15241;DHT22;7723;52.170;9.978;2023-12-20T12:43:01;4.80;99.90
15241;DHT22;7723;52.170;9.978;2023-12-20T12:45:30;4.80;99.90
15241;DHT22;7723;52.170;9.978;2023-12-20T12:47:58;4.80;99.90
15241;DHT22;7723;52.170;9.978;2023-12-20T12:50:25;4.80;99.90
15241;DHT22;7723;52.170;9.978;2023-12-20T12:52:54;4.90;99.90
15241;DHT22;7723;52.170;9.978;2023-12-20T12:55:21;4.90;99.90
15241;DHT22;7723;52.170;9.978;2023-12-20T12:57:50;4.90;99.90
15241;DHT22;7723;52.170;9.978;2023-12-20T13:00:17;4.80;99.90
15241;DHT22;7723;52.170;9.978;2023-12-20T13:02:45;4.80;99.90
15241;DHT22;7723;52.170;9.978;2023-12-20T13:05:12;4.80;99.90
15241;DHT22;7723;52.170;9.978;2023-12-20T13:07:40;4.80;99.90
15241;DHT22;7723;52.170;9.978;2023-12-20T13:10:11;4.80;99.90
15241;DHT22;7723;52.170;9.978;2023-12-20T13:12:38;4.80;99.90
15241;DHT22;7723;52.170;9.978;2023-12-20T13:15:07;4.90;99.90
15241;DHT22;7723;52.170;9.978;2023-12-20T13:17:35;4.90;99.90
15241;DHT22;7723;52.170;9.978;2023-12-20T13:20:03;6.10;99.90
15241;DHT22;7723;52.170;9.978;2023-12-20T13:22:32;6.20;99.90
15241;DHT22;7723;52.170;9.978;2023-12-20T13:24:59;5.00;99.90
15241;DHT22;7723;52.170;9.978;2023-12-20T13:27:28;5.00;99.90
15241;DHT22;7723;52.170;9.978;2023-12-20T13:29:55;5.10;99.90
15241;DHT22;7723;52.170;9.978;2023-12-20T13:32:24;5.10;99.90
15241;DHT22;7723;52.170;9.978;2023-12-20T13:34:52;5.20;99.90
15241;DHT22;7723;52.170;9.978;2023-12-20T13:37:19;5.30;99.90
15241;DHT22;7723;52.170;9.978;2023-12-20T13:39:46;5.40;99.90
15241;DHT22;7723;52.170;9.978;2023-12-20T13:42:14;5.30;99.90
15241;DHT22;7723;52.170;9.978;2023-12-20T13:44:41;5.40;99.90
15241;DHT22;7723;52.170;9.978;2023-12-20T13:47:09;5.50;99.90
15241;DHT22;7723;52.170;9.978;2023-12-20T13:49:38;5.60;99.90
15241;DHT22;7723;52.170;9.978;2023-12-20T13:52:06;5.60;99.90
15241;DHT22;7723;52.170;9.978;2023-12-20T13:54:33;5.60;99.90
15241;DHT22;7723;52.170;9.978;2023-12-20T13:57:00;5.70;99.90
15241;DHT22;7723;52.170;9.978;2023-12-20T13:59:28;5.70;99.90
15241;DHT22;7723;52.170;9.978;2023-12-20T14:01:56;5.70;99.90
15241;DHT22;7723;52.170;9.978;2023-12-20T14:04:24;5.70;99.90
15241;DHT22;7723;52.170;9.978;2023-12-20T14:06:52;5.80;99.90
15241;DHT22;7723;52.170;9.978;2023-12-20T14:09:20;5.80;99.90
15241;DHT22;7723;52.170;9.978;2023-12-20T14:11:47;5.80;99.90
15241;DHT22;7723;52.170;9.978;2023-12-20T14:14:15;5.80;99.90
15241;DHT22;7723;52.170;9.978;2023-12-20T14:16:42;5.80;99.90
15241;DHT22;7723;52.170;9.978;2023-12-20T14:19:10;5.80;99.90
15241;DHT22;7723;52.170;9.978;2023-12-20T14:21:38;5.20;99.90
15241;DHT22;7723;52.170;9.978;2023-12-20T14:24:19;5.80;99.90
15241;DHT22;7723;52.170;9.978;2023-12-20T14:26:47;5.20;99.90
15241;DHT22;7723;52.170;9.978;2023-12-20T14:29:14;5.80;99.90
15241;DHT22;7723;52.170;9.978;2023-12-20T14:31:41;5.80;99.90
15241;DHT22;7723;52.170;9.978;2023-12-20T14:34:09;5.70;99.90
15241;DHT22;7723;52.170;9.978;2023-12-20T14:36:37;5.70;99.90
15241;DHT22;7723;52.170;9.978;2023-12-20T14:39:06;5.90;99.90
15241;DHT22;7723;52.170;9.978;2023-12-20T14:41:34;5.70;99.90
15241;DHT22;7723;52.170;9.978;2023-12-20T14:44:01;5.70;99.90
15241;DHT22;7723;52.170;9.978;2023-12-20T14:46:30;5.80;99.90
15241;DHT22;7723;52.170;9.978;2023-12-20T14:48:57;5.70;99.90
15241;DHT22;7723;52.170;9.978;2023-12-20T14:51:27;5.70;99.90
15241;DHT22;7723;52.170;9.978;2023-12-20T14:53:54;5.70;99.90
15241;DHT22;7723;52.170;9.978;2023-12-20T14:56:23;5.70;99.90
15241;DHT22;7723;52.170;9.978;2023-12-20T14:58:51;5.80;99.90
15241;DHT22;7723;52.170;9.978;2023-12-20T15:01:19;5.80;99.90
15241;DHT22;7723;52.170;9.978;2023-12-20T15:03:47;5.70;99.90
15241;DHT22;7723;52.170;9.978;2023-12-20T15:06:15;5.70;99.90
15241;DHT22;7723;52.170;9.978;2023-12-20T15:08:42;5.80;99.90
15241;DHT22;7723;52.170;9.978;2023-12-20T15:11:11;5.70;99.90
15241;DHT22;7723;52.170;9.978;2023-12-20T15:13:42;5.70;99.90
15241;DHT22;7723;52.170;9.978;2023-12-20T15:16:13;6.20;99.90
15241;DHT22;7723;52.170;9.978;2023-12-20T15:18:46;5.60;99.90
15241;DHT22;7723;52.170;9.978;2023-12-20T15:21:41;5.70;99.90
15241;DHT22;7723;52.170;9.978;2023-12-20T15:24:09;5.00;99.90
15241;DHT22;7723;52.170;9.978;2023-12-20T15:26:41;5.70;99.90
15241;DHT22;7723;52.170;9.978;2023-12-20T15:29:12;5.80;99.90
15241;DHT22;7723;52.170;9.978;2023-12-20T15:31:45;5.60;99.90
15241;DHT22;7723;52.170;9.978;2023-12-20T15:34:13;5.70;99.90
15241;DHT22;7723;52.170;9.978;2023-12-20T15:36:42;5.80;99.90
15241;DHT22;7723;52.170;9.978;2023-12-20T15:39:10;5.60;99.90
15241;DHT22;7723;52.170;9.978;2023-12-20T15:41:40;5.70;99.90
15241;DHT22;7723;52.170;9.978;2023-12-20T15:44:07;5.60;99.90
15241;DHT22;7723;52.170;9.978;2023-12-20T15:46:36;5.70;99.90
15241;DHT22;7723;52.170;9.978;2023-12-20T15:49:03;5.70;99.90
15241;DHT22;7723;52.170;9.978;2023-12-20T15:51:30;5.70;99.90
15241;DHT22;7723;52.170;9.978;2023-12-20T15:53:58;5.70;99.90
15241;DHT22;7723;52.170;9.978;2023-12-20T15:56:31;4.90;99.90
15241;DHT22;7723;52.170;9.978;2023-12-20T15:58:58;5.80;99.90
15241;DHT22;7723;52.170;9.978;2023-12-20T16:01:25;5.70;99.90
15241;DHT22;7723;52.170;9.978;2023-12-20T16:03:54;5.80;99.90
15241;DHT22;7723;52.170;9.978;2023-12-20T16:06:21;5.70;99.90
15241;DHT22;7723;52.170;9.978;2023-12-20T16:08:49;5.70;99.90
15241;DHT22;7723;52.170;9.978;2023-12-20T16:11:16;5.70;99.90
15241;DHT22;7723;52.170;9.978;2023-12-20T16:13:43;5.70;99.90